EGPN/DND METAR and TAF weather

Enter ICAO airport designator
Station Type Date Time Source
EGPN METAR 2021/05/14 19:50 UTC NOAA

EGPN 141950Z 10006KT 9999 FEW045 09/06 Q1007


Station Type Date Time Source
EGPN Decoded METAR 2021/05/14 19:50 UTC NOAA

Dundee / Riverside, United Kingdom (EGPN) 56-27N 003-01W
May 14, 2021 - 03:50 PM EDT / 2021.05.14 1950 UTC
Wind: from the E (100 degrees) at 7 MPH (6 KT):0
Visibility: greater than 7 mile(s):0
Sky conditions: mostly clear
Temperature: 48 F (9 C)
Dew Point: 42 F (6 C)
Relative Humidity: 81%
Pressure (altimeter): 29.74 in. Hg (1007 hPa)
ob: EGPN 141950Z 10006KT 9999 FEW045 09/06 Q1007
cycle: 20

Station Type Date Time Source
EGPN TAF 2019/01/15 18:56 UTC NOAA

TAF EGPN 151750Z 1518/1621 CNL

Example: see airport list